Aérodrome :
LOGIN :

S'inscrire | Disclaimer

   EN    FR    IT 

 










Légende :    VFR   VFR Marginal   IFR   IFR Intensif   IFR Très Intensif
Visi : 
Plafond : 
>= 8 km
>= 3000ft
5 à 8 km
1000 à 3000 ft
1500m à 5 km
500 à 1000 ft
800 à 1500m
200 à 500 ft
< 800m
< 200 ft
Symboles :   Orages  Brouillard  Fortes neiges  Fortes précipitations  Vent > 20 kt
SIGMETs :   Divers  Orages  Givrage  Turbulence  Onde Orograph.  Cendres Volcan.







- Altitude de l'aérodrome : 526 ft
- Code IATA : LTN
- Voir les cartes d'approche


EGGW - London Luton

DERNIER METAR :
  • 170550Z AUTO 21008KT 4600 -DZ OVC002/// //////TCU 16/16 Q1010

METARs EXPIRÉS :
  • 170520Z AUTO 20009KT 150V220 5000 -RA OVC002 16/16 Q1010
  • 170450Z AUTO 19009KT 160V220 8000 -RA OVC002 16/16 Q1010
  • 170420Z AUTO 18009KT 150V220 6000 -RA OVC003/// //////TCU 15/15 Q1010
  • 170350Z AUTO 18008KT 9999 -RA BKN003/// OVC007/// //////TCU 15/15 Q1010
  • 170320Z AUTO 20009KT 9000 -RA OVC003/// //////CB 15/15 Q1011
  • 170250Z AUTO 19008KT 150V230 7000 OVC005 15/15 Q1011

TAF TAF EGGW
Valide du 17 à 06h jusqu'au 18 à 06h UTC


170458Z 1706/1806 20009KT 7000 -RA BKN002
BECMG 1706/1709 9999 NSW SCT020
PROB40
TEMPO 1706/1707 4000 +RA RADZ
PROB40
TEMPO 1709/1712 7000 SHRA BKN009
PROB30
TEMPO 1712/1723 7000 SHRA
ATIS : +44 1582 395 204
Pas de NOTAMs connus pour ce terrain.



MET'MAP, la Météo Aéronautique d'un coup d'oeil ! - Copyright ORBIFLY Décembre 2007 - Disclaimer

ORBIFLY MET'MAP TEAM :

Programmation & Développement : Alexandra Zaïnal
Conception & Développement : Baudouin d'Aumeries
Co-Programmation & Développement : Marc-Olivier Méhu
Soutien technique & logistique : Manuel Goepfert

Contact : metmap@orbifly.com




SOURCES & CREDITS :

   NOAA